Terminal Aerodrome Forecast
Issued by NWS Shreveport, LA

Home | Current Version | Previous Version | Text Only | Print | Product List | Glossary On
Versions: 1 2 3 4 5 6 7 8 9 10 11 12 13 14
000
FTUS44 KSHV 190520
TAFLFK
TAF
KLFK 190520Z 1906/2006 35009G16KT P6SM SKC
     FM190800 36007KT P6SM SKC
     FM191100 36004KT P6SM SKC
     FM191500 03010G16KT P6SM SKC
     FM192100 36007KT P6SM SKC
     FM200000 VRB03KT P6SM SKC=

USA.gov is the U.S. government's official web portal to all federal, state and local government web resources and services.